Time;durP1;ratioP1;P1;durP2;ratioP2;P2;SDS_P1;SDS_P2;PMS_P1;PMS_P2;Temp;Humidity;BMP_temperature;BMP_pressure;BME280_temperature;BME280_humidity;BME280_pressure;Samples;Min_cycle;Max_cycle;Signal;HPM_P1;HPM_P2
2023/12/30 00:00:57;;;;;;;4.68;1.20;;;6.30;99.90;;;;;;5021321;28;20177;-92
2023/12/30 00:03:23;;;;;;;8.60;1.75;;;6.30;99.90;;;;;;5021090;28;20017;-93
2023/12/30 00:05:48;;;;;;;6.93;1.30;;;6.20;99.90;;;;;;5023145;28;20021;-94
2023/12/30 00:08:14;;;;;;;9.10;1.98;;;6.20;99.90;;;;;;5023685;28;20040;-93
2023/12/30 00:10:40;;;;;;;7.20;1.30;;;6.20;99.90;;;;;;5023457;28;20390;-94
2023/12/30 00:13:06;;;;;;;5.57;1.27;;;6.20;99.90;;;;;;5022359;28;20152;-93
2023/12/30 00:15:40;;;;;;;8.63;1.40;;;6.30;99.90;;;;;;5020096;28;20034;-92
2023/12/30 00:18:09;;;;;;;11.80;1.73;;;6.20;99.90;;;;;;5023813;28;20037;-91
2023/12/30 00:20:40;;;;;;;5.05;1.58;;;6.20;99.90;;;;;;5024940;28;20057;-93
2023/12/30 00:23:11;;;;;;;3.78;1.52;;;6.30;99.90;;;;;;5023958;28;20053;-93
2023/12/30 00:25:44;;;;;;;6.70;1.50;;;6.40;99.90;;;;;;5020432;28;20111;-93
2023/12/30 00:28:26;;;;;;;5.05;1.88;;;6.30;99.90;;;;;;5027110;28;20033;-92
2023/12/30 00:30:52;;;;;;;8.15;1.50;;;6.30;99.90;;;;;;5019793;28;20037;-91
2023/12/30 00:33:17;;;;;;;6.88;1.23;;;6.30;99.90;;;;;;5029530;28;20041;-93
2023/12/30 00:35:43;;;;;;;3.75;1.00;;;6.40;99.90;;;;;;5039204;28;20041;-92
2023/12/30 00:38:09;;;;;;;6.53;1.98;;;6.50;99.90;;;;;;5043173;28;20034;-92
2023/12/30 00:40:34;;;;;;;13.23;1.70;;;6.40;99.90;;;;;;5041332;28;20053;-91
2023/12/30 00:43:00;;;;;;;7.18;2.00;;;6.40;99.90;;;;;;5034151;28;20009;-92
2023/12/30 00:45:27;;;;;;;7.72;2.10;;;6.40;99.90;;;;;;5019225;28;20530;-92
2023/12/30 00:47:56;;;;;;;7.63;1.85;;;6.40;99.90;;;;;;5025790;28;20376;-95
2023/12/30 00:50:21;;;;;;;8.63;1.40;;;6.40;99.90;;;;;;5023041;28;20047;-91
2023/12/30 00:52:55;;;;;;;9.82;1.42;;;6.40;99.90;;;;;;5034746;28;20158;-91
2023/12/30 00:55:20;;;;;;;3.63;1.10;;;6.40;99.90;;;;;;5031524;28;20142;-92
2023/12/30 00:57:49;;;;;;;11.20;1.58;;;6.40;99.90;;;;;;5040007;28;20052;-92
2023/12/30 01:00:15;;;;;;;8.40;1.60;;;6.40;99.90;;;;;;5030726;28;20029;-92
2023/12/30 01:02:44;;;;;;;4.57;1.27;;;6.30;99.90;;;;;;5019656;28;20037;-93
2023/12/30 01:05:09;;;;;;;7.75;1.73;;;6.40;99.90;;;;;;5135473;23;20020;-82
2023/12/30 01:07:35;;;;;;;10.80;1.90;;;6.40;99.90;;;;;;4999254;28;20365;-83
2023/12/30 01:10:01;;;;;;;3.38;1.40;;;6.40;99.90;;;;;;5007631;28;20013;-83
2023/12/30 01:12:27;;;;;;;7.22;1.40;;;6.40;99.90;;;;;;5020475;28;20045;-83
2023/12/30 01:14:52;;;;;;;6.55;1.10;;;6.30;99.90;;;;;;5025163;28;20041;-83
2023/12/30 01:17:18;;;;;;;6.30;1.40;;;6.30;99.90;;;;;;5028168;28;20014;-84
2023/12/30 01:19:44;;;;;;;10.75;1.60;;;6.30;99.90;;;;;;5008069;28;20042;-83
2023/12/30 01:22:10;;;;;;;3.85;1.27;;;6.30;99.90;;;;;;4997295;28;20169;-83
2023/12/30 01:24:36;;;;;;;7.20;1.92;;;6.30;99.90;;;;;;4996108;28;20033;-84
2023/12/30 01:27:02;;;;;;;14.32;2.45;;;6.30;99.90;;;;;;4998173;28;20382;-84
2023/12/30 01:29:29;;;;;;;7.90;1.42;;;6.10;99.90;;;;;;4996481;28;20121;-84
2023/12/30 01:31:54;;;;;;;5.47;1.33;;;6.10;99.90;;;;;;4998798;28;20030;-83
2023/12/30 01:34:20;;;;;;;8.98;1.20;;;6.10;99.90;;;;;;5000267;28;20495;-82
2023/12/30 01:36:45;;;;;;;6.15;1.23;;;6.10;99.90;;;;;;4997935;28;20121;-83
2023/12/30 01:39:13;;;;;;;8.52;2.03;;;6.00;99.90;;;;;;4997132;28;20113;-83
2023/12/30 01:41:38;;;;;;;11.98;1.30;;;5.90;99.90;;;;;;4994113;28;20556;-83
2023/12/30 01:44:04;;;;;;;9.60;1.48;;;5.90;99.90;;;;;;4996367;28;20045;-83
2023/12/30 01:46:30;;;;;;;7.28;1.27;;;5.80;99.90;;;;;;4996595;28;20109;-84
2023/12/30 01:48:55;;;;;;;4.53;1.20;;;5.80;99.90;;;;;;5012653;28;20030;-83
2023/12/30 01:51:21;;;;;;;9.70;1.73;;;5.80;99.90;;;;;;5020258;28;20062;-83
2023/12/30 01:53:47;;;;;;;7.35;1.50;;;5.80;99.90;;;;;;5013929;28;20054;-83
2023/12/30 01:56:13;;;;;;;6.60;1.70;;;5.70;99.90;;;;;;5014434;28;20057;-84
2023/12/30 01:58:39;;;;;;;5.28;1.25;;;5.70;99.90;;;;;;5004350;28;20711;-84
2023/12/30 02:01:07;;;;;;;9.05;1.48;;;5.70;99.90;;;;;;4995561;28;20021;-83
2023/12/30 02:03:33;;;;;;;9.77;1.77;;;5.70;99.90;;;;;;4997785;28;20026;-84
2023/12/30 02:06:00;;;;;;;9.05;1.30;;;5.60;99.90;;;;;;4986687;28;20050;-82
2023/12/30 02:08:26;;;;;;;7.97;1.10;;;5.60;99.90;;;;;;4978013;28;20065;-84
2023/12/30 02:10:52;;;;;;;7.50;1.25;;;5.60;99.90;;;;;;4974680;28;20125;-84
2023/12/30 02:13:17;;;;;;;8.40;1.23;;;5.60;99.90;;;;;;4981891;28;20042;-84
2023/12/30 02:15:43;;;;;;;7.63;1.60;;;5.50;99.90;;;;;;4981885;28;20034;-84
2023/12/30 02:18:09;;;;;;;6.75;1.60;;;5.50;99.90;;;;;;4974724;28;20118;-84
2023/12/30 02:20:34;;;;;;;10.85;1.40;;;5.60;99.90;;;;;;4979281;28;20034;-84
2023/12/30 02:23:00;;;;;;;7.95;1.42;;;5.50;99.90;;;;;;4969134;28;20056;-84
2023/12/30 02:25:26;;;;;;;4.32;1.20;;;5.50;99.90;;;;;;4977036;28;20337;-84
2023/12/30 02:27:51;;;;;;;9.70;1.70;;;5.50;99.90;;;;;;4976697;28;20525;-84
2023/12/30 02:30:17;;;;;;;6.57;1.13;;;5.50;99.90;;;;;;4975916;28;20122;-84
2023/12/30 02:32:42;;;;;;;4.35;1.30;;;5.50;99.90;;;;;;4975235;28;20034;-83
2023/12/30 02:35:08;;;;;;;5.55;1.45;;;5.40;99.90;;;;;;4981595;28;20035;-84
2023/12/30 02:37:34;;;;;;;6.07;1.50;;;5.40;99.90;;;;;;4977780;28;20428;-84
2023/12/30 02:40:00;;;;;;;6.45;1.33;;;5.20;99.90;;;;;;4978130;28;20428;-83
2023/12/30 02:42:25;;;;;;;6.68;1.15;;;5.20;99.90;;;;;;4983491;28;20026;-84
2023/12/30 02:44:52;;;;;;;5.40;1.35;;;5.10;99.90;;;;;;4979381;28;20488;-84
2023/12/30 02:47:17;;;;;;;9.52;2.88;;;5.00;99.90;;;;;;4976877;28;20034;-83
2023/12/30 02:49:44;;;;;;;7.63;1.92;;;4.90;99.90;;;;;;4977200;28;20090;-84
2023/12/30 02:52:10;;;;;;;10.50;1.80;;;4.90;99.90;;;;;;4977873;28;20030;-84
2023/12/30 02:54:36;;;;;;;8.65;2.00;;;4.90;99.90;;;;;;4988537;28;20505;-84
2023/12/30 02:57:03;;;;;;;7.22;2.35;;;4.90;99.90;;;;;;4971266;28;20127;-84
2023/12/30 02:59:29;;;;;;;8.38;1.60;;;4.80;99.90;;;;;;4975319;28;20062;-84
2023/12/30 03:01:55;;;;;;;9.02;1.75;;;4.70;99.90;;;;;;4973785;28;20039;-83
2023/12/30 03:04:21;;;;;;;8.77;1.65;;;4.70;99.90;;;;;;4984219;28;20029;-84
2023/12/30 03:06:46;;;;;;;7.03;1.48;;;4.60;99.90;;;;;;4996175;28;20046;-83
2023/12/30 03:09:12;;;;;;;7.22;1.52;;;4.60;99.90;;;;;;5005294;28;20085;-84
2023/12/30 03:11:38;;;;;;;5.07;1.45;;;4.70;99.90;;;;;;5024352;28;20052;-83
2023/12/30 03:14:04;;;;;;;7.38;1.30;;;4.70;99.90;;;;;;5032355;28;20025;-84
2023/12/30 03:16:31;;;;;;;8.00;1.50;;;4.70;99.90;;;;;;5021190;28;20042;-84
2023/12/30 03:18:57;;;;;;;6.22;1.90;;;4.70;99.90;;;;;;5011929;28;20063;-83
2023/12/30 03:21:22;;;;;;;11.02;1.95;;;4.80;99.90;;;;;;5002958;28;20034;-83
2023/12/30 03:23:48;;;;;;;5.85;1.70;;;4.70;99.90;;;;;;5001002;28;20037;-83
2023/12/30 03:26:14;;;;;;;6.60;1.70;;;4.70;99.90;;;;;;4996231;28;20081;-84
2023/12/30 03:28:39;;;;;;;9.80;1.95;;;4.80;99.90;;;;;;5003394;28;20570;-83
2023/12/30 03:31:07;;;;;;;8.13;1.52;;;4.90;99.90;;;;;;4998916;28;20028;-84
2023/12/30 03:33:32;;;;;;;6.30;2.08;;;5.00;99.90;;;;;;4999805;28;20038;-83
2023/12/30 03:35:58;;;;;;;9.57;2.00;;;5.10;99.90;;;;;;4997076;28;20475;-83
2023/12/30 03:38:24;;;;;;;16.50;3.03;;;5.30;99.90;;;;;;4999176;28;20103;-83
2023/12/30 03:40:50;;;;;;;8.63;1.40;;;5.40;99.90;;;;;;5006651;28;20516;-83
2023/12/30 03:43:16;;;;;;;10.15;2.00;;;5.50;99.90;;;;;;5005748;28;20044;-84
2023/12/30 03:45:42;;;;;;;6.85;1.50;;;5.50;99.90;;;;;;4998795;28;20043;-83
2023/12/30 03:48:09;;;;;;;5.70;1.70;;;5.60;99.90;;;;;;5004525;28;20392;-84
2023/12/30 03:50:36;;;;;;;10.43;3.58;;;5.60;99.90;;;;;;4999382;28;20034;-83
2023/12/30 03:53:03;;;;;;;15.68;2.45;;;5.60;99.90;;;;;;5003114;28;20060;-84
2023/12/30 03:55:28;;;;;;;10.43;2.58;;;5.70;99.90;;;;;;5007822;28;20041;-84
2023/12/30 03:57:54;;;;;;;11.95;2.28;;;5.70;99.90;;;;;;5017698;28;20030;-83
2023/12/30 04:00:20;;;;;;;13.77;2.70;;;5.70;99.90;;;;;;5022095;28;20088;-83
2023/12/30 04:02:47;;;;;;;9.02;2.30;;;5.70;99.90;;;;;;5013934;28;20018;-83
2023/12/30 04:05:13;;;;;;;16.88;2.90;;;5.80;99.90;;;;;;5000676;28;20018;-84
2023/12/30 04:07:38;;;;;;;12.15;2.60;;;5.90;99.90;;;;;;4998822;28;20049;-84
2023/12/30 04:10:04;;;;;;;13.85;2.70;;;5.90;99.90;;;;;;4999890;28;20485;-83
2023/12/30 04:12:32;;;;;;;10.43;2.65;;;5.90;99.90;;;;;;5005363;28;20042;-83
2023/12/30 04:14:58;;;;;;;8.88;2.25;;;6.00;99.90;;;;;;4999752;28;20292;-83
2023/12/30 04:17:24;;;;;;;8.18;2.17;;;6.00;99.90;;;;;;4999397;28;20030;-84
2023/12/30 04:19:49;;;;;;;12.05;2.00;;;6.10;99.90;;;;;;5004468;28;20105;-83
2023/12/30 04:22:15;;;;;;;11.27;2.22;;;6.10;99.90;;;;;;4999666;28;20121;-83
2023/12/30 04:24:40;;;;;;;12.70;2.22;;;6.10;99.90;;;;;;5001337;28;20026;-83
2023/12/30 04:27:06;;;;;;;10.90;1.88;;;6.20;99.90;;;;;;4999033;28;20065;-84
2023/12/30 04:29:32;;;;;;;9.90;2.40;;;6.20;99.90;;;;;;4998327;28;20057;-84
2023/12/30 04:31:57;;;;;;;12.52;2.08;;;6.20;99.90;;;;;;4996523;28;21108;-83
2023/12/30 04:34:23;;;;;;;12.18;1.40;;;6.20;99.90;;;;;;5001369;28;20038;-84
2023/12/30 04:36:48;;;;;;;11.35;1.90;;;6.30;99.90;;;;;;5001843;28;20501;-83
2023/12/30 04:39:14;;;;;;;12.70;1.58;;;6.40;99.90;;;;;;5000007;28;20030;-83
2023/12/30 04:41:40;;;;;;;9.23;1.60;;;6.40;99.90;;;;;;4992396;28;20115;-84
2023/12/30 04:44:06;;;;;;;12.88;1.67;;;6.40;99.90;;;;;;5010280;28;20467;-83
2023/12/30 04:46:31;;;;;;;10.00;1.52;;;6.50;99.90;;;;;;4997819;28;20157;-84
2023/12/30 04:49:01;;;;;;;13.00;1.92;;;6.40;99.90;;;;;;4994598;28;20034;-84
2023/12/30 04:51:27;;;;;;;7.57;1.52;;;6.40;99.90;;;;;;5000742;28;20040;-83
2023/12/30 04:53:52;;;;;;;10.65;1.45;;;6.30;99.90;;;;;;4998517;28;20038;-84
2023/12/30 04:56:18;;;;;;;10.57;1.80;;;6.30;99.90;;;;;;5000267;28;20066;-83
2023/12/30 04:58:44;;;;;;;14.05;2.22;;;6.30;99.90;;;;;;4995742;28;20029;-83
2023/12/30 05:01:11;;;;;;;10.15;1.90;;;6.40;99.90;;;;;;4999165;28;20470;-82
2023/12/30 05:03:37;;;;;;;8.88;1.45;;;6.50;99.90;;;;;;4997087;28;20072;-82
2023/12/30 05:06:03;;;;;;;16.02;2.03;;;6.60;99.90;;;;;;5001023;28;20741;-82
2023/12/30 05:08:29;;;;;;;11.55;2.30;;;6.80;99.90;;;;;;5006099;28;20061;-81
2023/12/30 05:10:55;;;;;;;11.68;2.00;;;6.90;99.90;;;;;;5021334;28;20078;-82
2023/12/30 05:13:21;;;;;;;15.82;1.80;;;6.90;99.90;;;;;;5024305;28;20018;-82
2023/12/30 05:15:48;;;;;;;14.60;1.55;;;6.90;99.90;;;;;;5027201;28;20655;-82
2023/12/30 05:18:16;;;;;;;11.27;1.92;;;6.90;99.90;;;;;;5018487;28;20102;-82
2023/12/30 05:20:42;;;;;;;9.18;2.42;;;6.90;99.90;;;;;;5006246;28;20034;-82
2023/12/30 05:23:08;;;;;;;20.10;2.13;;;6.90;99.90;;;;;;4993540;28;20471;-83
2023/12/30 05:25:34;;;;;;;13.57;2.47;;;6.90;99.90;;;;;;4993744;28;20038;-83
2023/12/30 05:27:59;;;;;;;12.35;1.67;;;7.00;99.90;;;;;;4995566;28;20037;-83
2023/12/30 05:30:25;;;;;;;11.43;1.83;;;7.00;99.90;;;;;;4995720;28;20030;-83
2023/12/30 05:32:51;;;;;;;12.10;2.47;;;7.10;99.90;;;;;;4995426;28;20093;-83
2023/12/30 05:35:17;;;;;;;15.85;1.60;;;7.10;99.90;;;;;;4999723;28;20038;-83
2023/12/30 05:37:43;;;;;;;14.88;2.22;;;7.20;99.90;;;;;;5002515;28;20030;-83
2023/12/30 05:40:09;;;;;;;10.48;1.60;;;7.40;99.90;;;;;;4999856;28;20042;-83
2023/12/30 05:42:35;;;;;;;11.52;1.48;;;7.50;99.90;;;;;;4997129;28;20038;-82
2023/12/30 05:45:01;;;;;;;10.45;1.75;;;7.60;99.90;;;;;;5004044;28;20026;-82
2023/12/30 05:47:26;;;;;;;13.48;2.42;;;7.60;99.90;;;;;;5001036;28;20051;-83
2023/12/30 05:49:52;;;;;;;10.25;1.63;;;7.80;99.90;;;;;;5000146;28;20390;-83
2023/12/30 05:52:18;;;;;;;16.02;2.28;;;7.80;99.90;;;;;;4999978;28;20524;-83
2023/12/30 05:54:45;;;;;;;15.15;1.88;;;7.80;99.90;;;;;;4995104;28;20089;-83
2023/12/30 05:57:11;;;;;;;12.30;1.70;;;7.90;99.90;;;;;;5001649;28;20034;-83
2023/12/30 05:59:36;;;;;;;11.75;1.55;;;8.00;99.90;;;;;;5002577;28;20030;-83
2023/12/30 06:02:02;;;;;;;16.83;1.98;;;8.00;99.90;;;;;;5008247;28;20022;-82
2023/12/30 06:04:29;;;;;;;13.82;2.00;;;8.00;99.90;;;;;;5013927;28;20036;-82
2023/12/30 06:06:55;;;;;;;13.45;1.42;;;8.10;99.90;;;;;;5013082;28;20046;-82
2023/12/30 06:09:21;;;;;;;16.05;2.10;;;8.20;99.90;;;;;;5018294;28;20029;-83
2023/12/30 06:11:47;;;;;;;25.80;4.18;;;8.20;99.90;;;;;;4999850;28;20034;-82
2023/12/30 06:14:13;;;;;;;18.17;2.30;;;8.30;99.90;;;;;;4999637;28;20628;-82
2023/12/30 06:16:39;;;;;;;12.00;1.70;;;8.30;99.90;;;;;;4996485;28;20049;-82
2023/12/30 06:19:05;;;;;;;13.50;2.38;;;8.30;99.90;;;;;;5000653;28;20458;-82
2023/12/30 06:21:30;;;;;;;14.38;1.92;;;8.40;99.90;;;;;;4999233;28;20039;-82
2023/12/30 06:23:56;;;;;;;14.15;2.20;;;8.40;99.90;;;;;;4995838;28;20026;-83
2023/12/30 06:26:21;;;;;;;16.73;1.85;;;8.40;99.90;;;;;;4994716;28;20038;-83
2023/12/30 06:28:47;;;;;;;15.45;2.25;;;8.40;99.90;;;;;;5001046;28;20047;-83
2023/12/30 06:31:13;;;;;;;12.75;2.00;;;8.40;99.90;;;;;;5001015;28;20072;-83
2023/12/30 06:33:39;;;;;;;10.70;1.85;;;8.40;99.90;;;;;;5001532;28;20040;-82
2023/12/30 06:36:05;;;;;;;20.05;2.00;;;8.40;99.90;;;;;;4999433;28;20279;-83
2023/12/30 06:38:30;;;;;;;16.90;2.95;;;8.40;99.90;;;;;;4998977;28;20080;-83
2023/12/30 06:40:56;;;;;;;10.75;1.55;;;8.40;99.90;;;;;;5004932;28;20022;-83
2023/12/30 06:43:22;;;;;;;12.63;1.70;;;8.50;99.90;;;;;;5003447;28;20423;-82
2023/12/30 06:45:47;;;;;;;14.40;2.00;;;8.40;99.90;;;;;;5004783;28;20023;-82
2023/12/30 06:48:13;;;;;;;14.68;2.30;;;8.40;99.90;;;;;;5002366;28;20116;-82
2023/12/30 06:50:39;;;;;;;15.13;2.45;;;8.40;99.90;;;;;;5004346;28;20033;-82
2023/12/30 06:53:04;;;;;;;12.10;2.13;;;8.30;99.90;;;;;;5005567;28;20034;-82
2023/12/30 06:55:30;;;;;;;21.13;3.40;;;8.30;99.90;;;;;;5004928;28;20044;-83
2023/12/30 06:57:56;;;;;;;13.85;2.22;;;8.30;99.90;;;;;;5005000;28;20023;-83
2023/12/30 07:00:21;;;;;;;17.75;2.97;;;8.20;99.90;;;;;;4999188;28;20133;-83
2023/12/30 07:02:47;;;;;;;18.50;2.20;;;8.30;99.90;;;;;;4998721;28;20037;-83
2023/12/30 07:05:13;;;;;;;13.45;2.15;;;8.40;99.90;;;;;;4998277;28;20038;-83
2023/12/30 07:07:38;;;;;;;20.80;2.40;;;8.50;99.90;;;;;;4998708;28;20458;-83
2023/12/30 07:10:05;;;;;;;15.55;2.28;;;8.50;99.90;;;;;;5004866;28;20051;-82
2023/12/30 07:12:31;;;;;;;15.63;2.08;;;8.60;99.90;;;;;;5008288;28;20056;-82
2023/12/30 07:14:57;;;;;;;25.85;2.80;;;8.80;99.90;;;;;;5024084;28;20031;-82
2023/12/30 07:17:23;;;;;;;11.15;2.75;;;8.80;99.90;;;;;;5020176;28;20321;-84
2023/12/30 07:19:49;;;;;;;16.45;1.83;;;8.90;99.90;;;;;;5025773;28;20025;-83
2023/12/30 07:22:18;;;;;;;9.07;2.10;;;8.80;99.90;;;;;;5018586;28;20113;-82
2023/12/30 07:24:45;;;;;;;12.57;2.03;;;8.80;99.90;;;;;;5006129;28;20512;-84
2023/12/30 07:27:11;;;;;;;14.20;2.13;;;8.80;99.90;;;;;;5001054;28;20030;-83
2023/12/30 07:29:36;;;;;;;10.35;2.45;;;8.90;99.90;;;;;;5002869;28;20056;-83
2023/12/30 07:32:02;;;;;;;18.33;2.15;;;8.90;99.90;;;;;;5005224;28;20030;-83
2023/12/30 07:34:28;;;;;;;15.35;2.53;;;9.00;99.90;;;;;;5003047;28;20046;-84
2023/12/30 07:36:54;;;;;;;18.65;2.55;;;9.00;99.90;;;;;;4999286;28;20504;-83
2023/12/30 07:39:20;;;;;;;15.68;3.10;;;9.10;99.90;;;;;;5000866;28;20506;-83
2023/12/30 07:41:45;;;;;;;17.98;2.85;;;9.20;99.90;;;;;;4997266;28;20026;-83
2023/12/30 07:44:11;;;;;;;22.30;3.22;;;9.20;99.90;;;;;;5004285;28;20497;-84
2023/12/30 07:46:36;;;;;;;17.75;2.33;;;9.20;99.90;;;;;;5003462;28;21470;-84
2023/12/30 07:49:02;;;;;;;12.63;2.28;;;9.30;99.90;;;;;;5008411;28;20077;-83
2023/12/30 07:51:28;;;;;;;22.40;2.92;;;9.30;99.90;;;;;;5015793;28;20029;-83
2023/12/30 07:53:54;;;;;;;14.23;2.63;;;9.30;99.90;;;;;;5019656;28;20073;-83
2023/12/30 07:56:19;;;;;;;19.38;3.22;;;9.40;99.90;;;;;;5018591;28;20037;-83
2023/12/30 07:58:45;;;;;;;23.23;3.03;;;9.40;99.90;;;;;;5015457;28;20034;-83
2023/12/30 08:01:11;;;;;;;21.05;4.00;;;9.40;99.90;;;;;;5010241;28;20410;-83
2023/12/30 08:03:36;;;;;;;19.38;4.32;;;9.50;99.90;;;;;;5005569;28;20026;-83
2023/12/30 08:06:02;;;;;;;18.58;3.08;;;9.50;99.90;;;;;;4999393;28;20390;-83
2023/12/30 08:08:27;;;;;;;24.90;2.97;;;9.50;99.90;;;;;;4995853;28;20052;-83
2023/12/30 08:10:53;;;;;;;22.83;4.10;;;9.50;99.90;;;;;;5014857;28;20056;-83
2023/12/30 08:13:19;;;;;;;13.48;2.90;;;9.60;99.90;;;;;;5011609;28;20030;-82
2023/12/30 08:15:44;;;;;;;21.23;3.92;;;9.60;99.90;;;;;;5012588;28;20048;-81
2023/12/30 08:18:11;;;;;;;24.42;4.20;;;9.60;99.90;;;;;;5019475;28;20108;-82
2023/12/30 08:20:36;;;;;;;19.80;2.90;;;9.60;99.90;;;;;;4999579;28;20453;-83
2023/12/30 08:23:02;;;;;;;12.15;2.78;;;9.60;99.90;;;;;;4999932;28;20017;-83
2023/12/30 08:25:28;;;;;;;19.58;3.28;;;9.60;99.90;;;;;;4997799;28;20052;-83
2023/12/30 08:27:53;;;;;;;13.60;2.67;;;9.60;99.90;;;;;;4999325;28;20080;-83
2023/12/30 08:30:19;;;;;;;13.77;3.08;;;9.60;99.90;;;;;;5001713;28;20038;-84
2023/12/30 08:32:45;;;;;;;21.77;3.50;;;9.60;99.90;;;;;;4996499;28;20168;-83
2023/12/30 08:35:11;;;;;;;15.77;3.33;;;9.70;99.90;;;;;;4994905;28;20093;-83
2023/12/30 08:37:37;;;;;;;20.48;3.88;;;9.70;99.90;;;;;;4995564;28;20058;-84
2023/12/30 08:40:09;;;;;;;22.13;3.08;;;9.80;99.90;;;;;;4999114;28;20074;-83
2023/12/30 08:42:35;;;;;;;18.95;3.40;;;9.80;99.90;;;;;;4998666;28;20030;-83
2023/12/30 08:45:02;;;;;;;21.98;3.90;;;9.80;99.90;;;;;;4997011;28;20604;-83
2023/12/30 08:47:31;;;;;;;17.85;3.00;;;9.80;99.90;;;;;;4999001;28;20069;-83
2023/12/30 08:49:57;;;;;;;17.77;3.38;;;9.80;99.90;;;;;;5002164;28;20437;-83
2023/12/30 08:52:23;;;;;;;13.52;2.63;;;9.90;99.90;;;;;;4995945;28;20028;-84
2023/12/30 08:54:48;;;;;;;18.63;3.55;;;9.90;99.90;;;;;;4994899;28;20109;-84
2023/12/30 08:57:14;;;;;;;14.90;2.40;;;9.90;99.90;;;;;;4997716;28;20453;-83
2023/12/30 08:59:40;;;;;;;15.75;3.10;;;9.90;99.90;;;;;;4998646;28;20124;-83
2023/12/30 09:02:06;;;;;;;26.75;3.25;;;10.00;99.90;;;;;;5002450;28;20029;-83
2023/12/30 09:04:31;;;;;;;12.63;2.53;;;10.00;99.90;;;;;;4997404;28;20097;-83
2023/12/30 09:06:57;;;;;;;14.45;2.92;;;10.10;99.90;;;;;;4997072;28;20141;-83
2023/12/30 09:09:22;;;;;;;20.58;3.65;;;10.10;99.90;;;;;;4997244;28;20053;-83
2023/12/30 09:11:48;;;;;;;11.10;2.03;;;10.10;99.90;;;;;;5002304;28;20517;-83
2023/12/30 09:14:14;;;;;;;19.77;3.38;;;10.10;99.90;;;;;;4998259;28;20034;-83
2023/12/30 09:16:39;;;;;;;15.15;2.35;;;10.10;99.90;;;;;;5000781;28;20048;-83
2023/12/30 09:19:05;;;;;;;14.82;2.40;;;10.20;99.90;;;;;;5012420;28;21124;-83
2023/12/30 09:21:31;;;;;;;14.18;3.53;;;10.20;99.90;;;;;;5019933;28;20037;-83
2023/12/30 09:23:57;;;;;;;10.77;2.67;;;10.20;99.90;;;;;;5020812;28;20030;-83
2023/12/30 09:26:23;;;;;;;14.43;2.97;;;10.20;99.90;;;;;;5017727;28;20029;-84
2023/12/30 09:28:48;;;;;;;15.27;2.90;;;10.30;99.90;;;;;;5016042;28;20092;-83
2023/12/30 09:31:14;;;;;;;16.13;2.58;;;10.30;99.90;;;;;;5016865;28;20048;-83
2023/12/30 09:33:40;;;;;;;13.50;3.08;;;10.30;99.90;;;;;;5005237;28;20087;-83
2023/12/30 09:36:06;;;;;;;19.45;2.13;;;10.30;99.90;;;;;;4995631;28;20026;-83
2023/12/30 09:38:32;;;;;;;11.45;2.53;;;10.40;99.90;;;;;;4995742;28;20451;-83
2023/12/30 09:40:57;;;;;;;8.88;2.30;;;10.40;99.90;;;;;;5000854;28;20029;-83
2023/12/30 09:43:25;;;;;;;10.85;2.33;;;10.50;99.90;;;;;;5006832;28;20053;-83
2023/12/30 09:45:52;;;;;;;15.32;2.20;;;10.50;99.90;;;;;;4999210;28;20156;-83
2023/12/30 09:48:20;;;;;;;12.10;2.28;;;10.50;99.90;;;;;;5001182;28;20401;-83
2023/12/30 09:50:49;;;;;;;12.55;1.92;;;10.50;99.90;;;;;;4999183;28;20452;-83
2023/12/30 09:53:16;;;;;;;16.88;2.88;;;10.50;99.90;;;;;;4999469;28;21458;-83
2023/12/30 09:55:45;;;;;;;14.50;2.20;;;10.50;99.90;;;;;;4993400;28;20084;-83
2023/12/30 09:58:12;;;;;;;13.90;2.22;;;10.50;99.90;;;;;;4997694;28;20037;-83
2023/12/30 10:00:42;;;;;;;14.43;2.80;;;10.50;99.90;;;;;;4995130;28;20049;-83
2023/12/30 10:03:09;;;;;;;13.93;2.83;;;10.50;99.90;;;;;;4998629;28;20036;-82
2023/12/30 10:05:34;;;;;;;12.38;1.98;;;10.50;99.90;;;;;;5005515;28;20806;-82
2023/12/30 10:08:05;;;;;;;15.02;2.40;;;10.50;99.90;;;;;;4995498;28;20022;-82
2023/12/30 10:10:49;;;;;;;15.88;2.67;;;10.60;99.90;;;;;;4997166;28;20037;-82
2023/12/30 10:13:17;;;;;;;18.40;3.63;;;10.50;99.90;;;;;;5000194;28;20026;-82
2023/12/30 10:15:43;;;;;;;13.98;2.70;;;10.50;99.90;;;;;;5003429;28;20030;-84
2023/12/30 10:18:09;;;;;;;12.32;2.05;;;10.40;99.90;;;;;;5003574;28;20069;-83
2023/12/30 10:20:41;;;;;;;14.82;1.83;;;10.40;99.90;;;;;;4999094;28;20026;-84
2023/12/30 10:23:07;;;;;;;14.77;2.40;;;10.40;99.90;;;;;;5013771;28;20026;-82
2023/12/30 10:25:33;;;;;;;12.93;2.35;;;10.40;99.90;;;;;;5011848;28;20034;-83
2023/12/30 10:27:59;;;;;;;21.63;3.15;;;10.40;99.90;;;;;;5013255;28;20022;-83
2023/12/30 10:30:24;;;;;;;12.93;2.20;;;10.40;99.90;;;;;;5012030;28;20041;-83
2023/12/30 10:32:50;;;;;;;14.35;1.98;;;10.40;99.90;;;;;;5006266;28;20030;-84
2023/12/30 10:35:16;;;;;;;15.57;2.28;;;10.30;99.90;;;;;;4994006;28;20126;-83
2023/12/30 10:37:42;;;;;;;18.20;2.45;;;10.20;99.90;;;;;;5002556;28;20122;-83
2023/12/30 10:40:09;;;;;;;15.48;2.35;;;10.30;99.90;;;;;;4998593;28;20034;-83
2023/12/30 10:42:36;;;;;;;8.07;1.98;;;10.20;99.90;;;;;;5000449;28;20030;-84
2023/12/30 10:45:02;;;;;;;11.00;2.28;;;10.30;99.90;;;;;;4995447;28;20658;-84
2023/12/30 10:47:28;;;;;;;18.13;2.63;;;10.30;99.90;;;;;;4997413;28;20026;-84
2023/12/30 10:50:04;;;;;;;17.25;2.92;;;10.30;99.90;;;;;;4999512;28;20030;-83
2023/12/30 10:52:32;;;;;;;9.70;2.47;;;10.30;99.90;;;;;;5000890;28;20478;-84
2023/12/30 10:55:10;;;;;;;6.50;2.10;;;10.30;99.90;;;;;;4983967;28;20044;-84
2023/12/30 10:57:37;;;;;;;9.95;1.90;;;10.30;99.90;;;;;;4997241;28;20030;-84
2023/12/30 11:00:09;;;;;;;18.15;3.05;;;10.30;99.90;;;;;;4999468;28;20069;-85
2023/12/30 11:02:36;;;;;;;12.30;2.22;;;10.30;99.90;;;;;;5003729;28;20034;-84
2023/12/30 11:05:09;;;;;;;13.02;2.55;;;10.30;99.90;;;;;;4996073;28;20605;-85
2023/12/30 11:07:35;;;;;;;13.25;2.75;;;10.30;99.90;;;;;;4997644;28;20073;-84
2023/12/30 11:10:14;;;;;;;16.45;3.55;;;10.30;99.90;;;;;;4996421;28;20161;-84
2023/12/30 11:12:40;;;;;;;11.85;3.00;;;10.40;99.90;;;;;;4997430;28;20026;-84
2023/12/30 11:15:23;;;;;;;16.40;2.80;;;10.50;99.90;;;;;;4992535;28;20049;-84
2023/12/30 11:17:49;;;;;;;11.18;2.17;;;10.50;99.90;;;;;;4994631;28;20027;-84
2023/12/30 11:20:24;;;;;;;13.70;2.67;;;10.50;99.90;;;;;;4993734;28;20037;-84
2023/12/30 11:22:53;;;;;;;8.80;2.08;;;10.60;99.90;;;;;;4993730;28;20083;-84
2023/12/30 11:25:19;;;;;;;11.23;2.67;;;10.60;99.90;;;;;;4998259;28;20021;-84
2023/12/30 11:27:48;;;;;;;14.98;2.38;;;10.70;99.90;;;;;;4999471;28;20029;-84
2023/12/30 11:30:16;;;;;;;13.00;2.08;;;10.80;99.90;;;;;;5014663;28;20267;-83
2023/12/30 11:32:44;;;;;;;10.50;2.65;;;10.80;99.90;;;;;;5023087;28;20045;-85
2023/12/30 11:35:12;;;;;;;12.88;2.50;;;10.90;99.90;;;;;;5024445;28;20053;-83
2023/12/30 11:37:43;;;;;;;11.82;1.98;;;10.90;99.90;;;;;;5023851;28;20078;-83
2023/12/30 11:40:17;;;;;;;17.13;2.58;;;10.90;99.90;;;;;;5014729;28;20045;-85
2023/12/30 11:42:42;;;;;;;11.45;1.80;;;10.90;99.90;;;;;;4996287;28;20514;-84
2023/12/30 11:45:09;;;;;;;20.63;2.92;;;10.90;99.90;;;;;;4999809;28;20030;-84
2023/12/30 11:47:34;;;;;;;12.05;2.65;;;10.90;99.90;;;;;;4999610;28;20033;-84
2023/12/30 11:50:05;;;;;;;10.43;2.38;;;10.90;99.90;;;;;;5002793;28;20030;-84
2023/12/30 11:52:31;;;;;;;10.88;1.85;;;10.90;99.90;;;;;;4999664;28;20061;-83
2023/12/30 11:54:56;;;;;;;10.27;1.60;;;11.00;99.90;;;;;;4999714;28;20386;-85
2023/12/30 11:57:22;;;;;;;9.90;1.48;;;11.00;99.90;;;;;;5002992;28;20552;-84
2023/12/30 11:59:49;;;;;;;7.05;1.63;;;11.10;99.90;;;;;;4999007;28;20027;-84
2023/12/30 12:02:16;;;;;;;15.40;2.33;;;11.10;99.90;;;;;;4999681;28;20026;-84
2023/12/30 12:04:42;;;;;;;9.02;2.17;;;11.10;99.90;;;;;;5000118;28;20020;-84
2023/12/30 12:07:08;;;;;;;8.90;1.70;;;11.10;99.90;;;;;;5005604;28;20053;-84
2023/12/30 12:09:33;;;;;;;9.93;3.55;;;11.20;99.90;;;;;;4999367;28;20556;-84
2023/12/30 12:12:00;;;;;;;15.75;2.20;;;11.20;99.90;;;;;;4999275;28;20038;-83
2023/12/30 12:14:26;;;;;;;8.25;1.55;;;11.20;99.90;;;;;;4997186;28;20129;-83
2023/12/30 12:16:52;;;;;;;8.02;1.75;;;11.20;99.90;;;;;;4999752;28;20128;-84
2023/12/30 12:19:17;;;;;;;8.57;1.42;;;11.20;99.90;;;;;;5002606;28;20431;-84
2023/12/30 12:21:43;;;;;;;9.40;1.13;;;11.20;99.90;;;;;;4998115;28;20478;-85
2023/12/30 12:24:09;;;;;;;10.95;1.75;;;11.30;99.90;;;;;;5000535;28;20454;-85
2023/12/30 12:26:37;;;;;;;10.85;2.17;;;11.30;99.90;;;;;;4996167;28;20364;-84
2023/12/30 12:29:04;;;;;;;9.68;1.88;;;11.20;99.90;;;;;;5001790;28;20120;-85
2023/12/30 12:31:30;;;;;;;6.90;2.03;;;11.20;99.90;;;;;;5003666;28;20048;-85
2023/12/30 12:33:56;;;;;;;9.07;2.30;;;11.30;99.90;;;;;;4998229;28;20034;-85
2023/12/30 12:36:22;;;;;;;12.40;2.50;;;11.40;99.90;;;;;;5012135;28;20036;-84
2023/12/30 12:38:50;;;;;;;11.85;2.88;;;11.40;99.90;;;;;;5011852;28;20066;-84
2023/12/30 12:41:15;;;;;;;9.27;2.72;;;11.40;99.90;;;;;;5035225;28;20026;-84
2023/12/30 12:43:41;;;;;;;5.85;1.80;;;11.50;99.90;;;;;;5028944;28;20026;-84